createdAt,value
2018-09-16T00:00:06.638Z,987.45
2018-09-16T00:01:06.563Z,987.44
2018-09-16T00:02:06.487Z,987.46
2018-09-16T00:03:06.409Z,987.44
2018-09-16T00:04:06.333Z,987.42
2018-09-16T00:05:06.253Z,987.41
2018-09-16T00:06:06.179Z,987.43
2018-09-16T00:07:06.099Z,987.42
2018-09-16T00:08:06.024Z,987.41
2018-09-16T00:09:05.951Z,987.43
2018-09-16T00:10:05.870Z,987.42
2018-09-16T00:11:05.788Z,987.38
2018-09-16T00:12:05.714Z,987.38
2018-09-16T00:13:05.634Z,987.37
2018-09-16T00:14:05.577Z,987.37
2018-09-16T00:15:05.479Z,987.39
2018-09-16T00:16:05.404Z,987.40
2018-09-16T00:17:05.326Z,987.41
2018-09-16T00:18:05.249Z,987.40
2018-09-16T00:19:05.171Z,987.34
2018-09-16T00:20:05.102Z,987.37
2018-09-16T00:21:05.017Z,987.37
2018-09-16T00:22:04.939Z,987.34
2018-09-16T00:23:04.861Z,987.32
2018-09-16T00:24:04.785Z,987.33
2018-09-16T00:25:04.714Z,987.32
2018-09-16T00:26:04.632Z,987.29
2018-09-16T00:27:04.553Z,987.29
2018-09-16T00:28:04.476Z,987.30
2018-09-16T00:29:04.399Z,987.29
2018-09-16T00:30:04.323Z,987.29
2018-09-16T00:31:04.249Z,987.27
2018-09-16T00:32:04.170Z,987.25
2018-09-16T00:33:04.090Z,987.23
2018-09-16T00:34:04.011Z,987.25
2018-09-16T00:35:03.932Z,987.27
2018-09-16T00:36:03.856Z,987.26
2018-09-16T00:37:03.781Z,987.25
2018-09-16T00:38:03.702Z,987.25
2018-09-16T00:39:03.623Z,987.25
2018-09-16T00:40:03.547Z,987.20
2018-09-16T00:41:03.469Z,987.19
2018-09-16T00:42:03.392Z,987.17
2018-09-16T00:43:03.314Z,987.21
2018-09-16T00:44:03.237Z,987.18
2018-09-16T00:45:03.160Z,987.20
2018-09-16T00:46:03.082Z,987.18
2018-09-16T00:47:03.003Z,987.15
2018-09-16T00:48:02.932Z,987.11
2018-09-16T00:49:02.861Z,987.12
2018-09-16T00:50:02.778Z,987.08
2018-09-16T00:51:02.694Z,987.07
2018-09-16T00:52:02.618Z,987.07
2018-09-16T00:53:02.542Z,987.10
2018-09-16T00:54:02.462Z,987.07
2018-09-16T00:55:02.384Z,987.07
2018-09-16T00:56:02.311Z,987.06
2018-09-16T00:57:02.232Z,987.03
2018-09-16T00:58:02.152Z,987.04
2018-09-16T00:59:02.073Z,987.04
2018-09-16T01:00:02.000Z,987.01
2018-09-16T01:01:01.920Z,986.98
2018-09-16T01:02:01.842Z,987.05
2018-09-16T01:03:01.767Z,987.05
2018-09-16T01:04:01.686Z,987.02
2018-09-16T01:05:01.613Z,987.04
2018-09-16T01:06:01.535Z,987.01
2018-09-16T01:07:01.457Z,986.98
2018-09-16T01:08:01.378Z,986.97
2018-09-16T01:09:01.299Z,986.96
2018-09-16T01:10:01.223Z,986.93
2018-09-16T01:11:01.146Z,986.92
2018-09-16T01:12:01.065Z,986.91
2018-09-16T01:13:00.993Z,986.94
2018-09-16T01:14:00.912Z,986.96
2018-09-16T01:15:00.834Z,986.92
2018-09-16T01:16:00.759Z,986.92
2018-09-16T01:17:00.676Z,986.92
2018-09-16T01:18:00.602Z,986.90
2018-09-16T01:19:00.521Z,986.89
2018-09-16T01:20:00.445Z,986.89
2018-09-16T01:21:00.371Z,986.87
2018-09-16T01:22:00.290Z,986.88
2018-09-16T01:23:00.211Z,986.87
2018-09-16T01:24:00.133Z,986.83
2018-09-16T01:25:00.056Z,986.83
2018-09-16T01:25:59.980Z,986.82
2018-09-16T01:26:59.902Z,986.82
2018-09-16T01:27:59.821Z,986.80
2018-09-16T01:28:59.744Z,986.81
2018-09-16T01:29:59.667Z,986.81
2018-09-16T01:30:59.589Z,986.81
2018-09-16T01:31:59.552Z,986.85
2018-09-16T01:32:59.433Z,986.81
2018-09-16T01:33:59.357Z,986.84
2018-09-16T01:34:59.280Z,986.81
2018-09-16T01:35:59.207Z,986.82
2018-09-16T01:36:59.126Z,986.85
2018-09-16T01:37:59.046Z,986.86
2018-09-16T01:38:58.969Z,986.81
2018-09-16T01:39:58.891Z,986.83
2018-09-16T01:40:58.812Z,986.84
2018-09-16T01:41:58.738Z,986.82
2018-09-16T01:42:58.656Z,986.77
2018-09-16T01:43:58.580Z,986.78
2018-09-16T01:44:58.516Z,986.73
2018-09-16T01:45:58.427Z,986.73
2018-09-16T01:46:58.348Z,986.74
2018-09-16T01:47:58.269Z,986.70
2018-09-16T01:48:58.191Z,986.67
2018-09-16T01:49:58.109Z,986.69
2018-09-16T01:50:58.035Z,986.70
2018-09-16T01:51:57.957Z,986.71
2018-09-16T01:52:57.881Z,986.71
2018-09-16T01:53:57.802Z,986.68
2018-09-16T01:54:57.723Z,986.70
2018-09-16T01:55:57.643Z,986.67
2018-09-16T01:56:57.565Z,986.65
2018-09-16T01:57:57.488Z,986.65
2018-09-16T01:58:57.421Z,986.63
2018-09-16T01:59:57.331Z,986.61
2018-09-16T02:00:57.253Z,986.57
2018-09-16T02:01:57.176Z,986.59
2018-09-16T02:02:57.105Z,986.54
2018-09-16T02:03:57.019Z,986.56
2018-09-16T02:04:56.943Z,986.55
2018-09-16T02:05:56.864Z,986.54
2018-09-16T02:06:56.789Z,986.57
2018-09-16T02:07:56.709Z,986.57
2018-09-16T02:08:56.635Z,986.59
2018-09-16T02:09:56.550Z,986.60
2018-09-16T02:10:56.475Z,986.60
2018-09-16T02:11:56.396Z,986.61
2018-09-16T02:12:56.318Z,986.59
2018-09-16T02:13:56.239Z,986.58
2018-09-16T02:14:56.160Z,986.57
2018-09-16T02:15:56.083Z,986.58
2018-09-16T02:16:56.006Z,986.59
2018-09-16T02:17:55.927Z,986.58
2018-09-16T02:18:55.847Z,986.56
2018-09-16T02:19:55.773Z,986.57
2018-09-16T02:20:55.694Z,986.58
2018-09-16T02:21:55.615Z,986.48
2018-09-16T02:22:55.536Z,986.50
2018-09-16T02:23:55.469Z,986.52
2018-09-16T02:24:55.384Z,986.51
2018-09-16T02:25:55.306Z,986.53
2018-09-16T02:26:55.223Z,986.50
2018-09-16T02:27:55.147Z,986.55
2018-09-16T02:28:55.070Z,986.55
2018-09-16T02:29:54.990Z,986.56
2018-09-16T02:30:54.909Z,986.54
2018-09-16T02:31:54.835Z,986.50
2018-09-16T02:32:54.755Z,986.53
2018-09-16T02:33:54.676Z,986.50
2018-09-16T02:34:54.600Z,986.53
2018-09-16T02:35:54.520Z,986.49
2018-09-16T02:36:54.443Z,986.48
2018-09-16T02:37:54.364Z,986.48
2018-09-16T02:38:54.291Z,986.42
2018-09-16T02:39:54.206Z,986.45
2018-09-16T02:40:54.129Z,986.44
2018-09-16T02:41:54.051Z,986.40
2018-09-16T02:42:53.972Z,986.44
2018-09-16T02:43:53.893Z,986.48
2018-09-16T02:44:53.818Z,986.45
2018-09-16T02:45:53.737Z,986.41
2018-09-16T02:46:53.659Z,986.45
2018-09-16T02:47:53.580Z,986.43
2018-09-16T02:48:53.502Z,986.42
2018-09-16T02:49:53.430Z,986.44
2018-09-16T02:50:53.345Z,986.45
2018-09-16T02:51:53.266Z,986.44
2018-09-16T02:52:53.189Z,986.42
2018-09-16T02:53:53.112Z,986.38
2018-09-16T02:54:53.033Z,986.38
2018-09-16T02:55:52.958Z,986.32
2018-09-16T02:56:52.875Z,986.32
2018-09-16T02:57:52.799Z,986.32
2018-09-16T02:58:52.726Z,986.30
2018-09-16T02:59:52.640Z,986.35
2018-09-16T03:00:52.564Z,986.30
2018-09-16T03:01:52.484Z,986.32
2018-09-16T03:02:52.407Z,986.27
2018-09-16T03:03:52.327Z,986.30
2018-09-16T03:04:52.252Z,986.24
2018-09-16T03:05:52.171Z,986.31
2018-09-16T03:06:52.092Z,986.32
2018-09-16T03:07:52.013Z,986.30
2018-09-16T03:08:51.937Z,986.32
2018-09-16T03:09:51.857Z,986.32
2018-09-16T03:10:51.779Z,986.27
2018-09-16T03:11:51.847Z,986.28
2018-09-16T03:12:51.621Z,986.32
2018-09-16T03:13:51.548Z,986.33
2018-09-16T03:14:51.468Z,986.31
2018-09-16T03:15:51.388Z,986.33
2018-09-16T03:16:51.313Z,986.27
2018-09-16T03:17:51.229Z,986.24
2018-09-16T03:18:51.195Z,986.29
2018-09-16T03:19:51.078Z,986.31
2018-09-16T03:20:50.994Z,986.30
2018-09-16T03:21:50.917Z,986.30
2018-09-16T03:22:50.846Z,986.32
2018-09-16T03:23:50.756Z,986.30
2018-09-16T03:24:50.685Z,986.30
2018-09-16T03:25:50.602Z,986.28
2018-09-16T03:26:50.526Z,986.30
2018-09-16T03:27:50.445Z,986.29
2018-09-16T03:28:50.373Z,986.30
2018-09-16T03:29:50.289Z,986.30
2018-09-16T03:30:50.209Z,986.23
2018-09-16T03:31:50.130Z,986.27
2018-09-16T03:32:50.054Z,986.20
2018-09-16T03:33:49.974Z,986.19
2018-09-16T03:34:49.894Z,986.20
2018-09-16T03:35:49.828Z,986.20
2018-09-16T03:36:49.739Z,986.19
2018-09-16T03:37:49.662Z,986.20
2018-09-16T03:38:49.581Z,986.18
2018-09-16T03:39:49.503Z,986.22
2018-09-16T03:40:49.422Z,986.19
2018-09-16T03:41:49.345Z,986.22
2018-09-16T03:42:49.268Z,986.20
2018-09-16T03:43:49.190Z,986.22
2018-09-16T03:44:49.109Z,986.22
2018-09-16T03:45:49.031Z,986.25
2018-09-16T03:46:49.013Z,986.23
2018-09-16T03:47:48.873Z,986.25
2018-09-16T03:48:48.795Z,986.25
2018-09-16T03:49:48.715Z,986.27
2018-09-16T03:50:48.723Z,986.32
2018-09-16T03:51:48.558Z,986.28
2018-09-16T03:52:48.494Z,986.31
2018-09-16T03:53:48.401Z,986.30
2018-09-16T03:54:48.324Z,986.34
2018-09-16T03:55:48.244Z,986.30
2018-09-16T03:56:48.167Z,986.32
2018-09-16T03:57:48.100Z,986.32
2018-09-16T03:58:48.009Z,986.32
2018-09-16T03:59:47.929Z,986.35
2018-09-16T04:00:47.852Z,986.35
2018-09-16T04:01:47.773Z,986.35
2018-09-16T04:02:47.695Z,986.34
2018-09-16T04:03:47.616Z,986.35
2018-09-16T04:04:47.538Z,986.36
2018-09-16T04:05:47.471Z,986.33
2018-09-16T04:06:47.385Z,986.32
2018-09-16T04:07:47.301Z,986.32
2018-09-16T04:08:47.223Z,986.34
2018-09-16T04:09:47.144Z,986.32
2018-09-16T04:10:47.065Z,986.31
2018-09-16T04:11:46.990Z,986.27
2018-09-16T04:12:46.909Z,986.30
2018-09-16T04:13:46.849Z,986.26
2018-09-16T04:14:46.751Z,986.24
2018-09-16T04:15:46.676Z,986.23
2018-09-16T04:16:46.598Z,986.23
2018-09-16T04:17:46.518Z,986.25
2018-09-16T04:18:46.436Z,986.20
2018-09-16T04:19:46.358Z,986.19
2018-09-16T04:20:46.279Z,986.18
2018-09-16T04:21:46.201Z,986.17
2018-09-16T04:22:46.122Z,986.12
2018-09-16T04:23:46.044Z,986.13
2018-09-16T04:24:45.965Z,986.14
2018-09-16T04:25:45.887Z,986.11
2018-09-16T04:26:45.807Z,986.17
2018-09-16T04:27:45.729Z,986.17
2018-09-16T04:28:45.650Z,986.18
2018-09-16T04:29:45.577Z,986.20
2018-09-16T04:30:45.492Z,986.21
2018-09-16T04:31:45.414Z,986.24
2018-09-16T04:32:45.335Z,986.26
2018-09-16T04:33:45.258Z,986.26
2018-09-16T04:34:45.177Z,986.26
2018-09-16T04:35:45.099Z,986.25
2018-09-16T04:36:45.021Z,986.24
2018-09-16T04:37:44.946Z,986.24
2018-09-16T04:38:44.865Z,986.24
2018-09-16T04:39:44.786Z,986.24
2018-09-16T04:40:44.705Z,986.25
2018-09-16T04:41:44.677Z,986.23
2018-09-16T04:42:44.549Z,986.24
2018-09-16T04:43:44.470Z,986.23
2018-09-16T04:44:44.432Z,986.24
2018-09-16T04:45:44.314Z,986.25
2018-09-16T04:46:44.232Z,986.25
2018-09-16T04:47:44.153Z,986.27
2018-09-16T04:48:44.079Z,986.27
2018-09-16T04:49:44.042Z,986.26
2018-09-16T04:50:43.927Z,986.28
2018-09-16T04:51:43.839Z,986.28
2018-09-16T04:52:43.763Z,986.29
2018-09-16T04:53:43.686Z,986.30
2018-09-16T04:54:43.608Z,986.29
2018-09-16T04:55:43.525Z,986.31
2018-09-16T04:56:43.446Z,986.32
2018-09-16T04:57:43.366Z,986.32
2018-09-16T04:58:43.299Z,986.35
2018-09-16T04:59:43.221Z,986.34
2018-09-16T05:00:43.131Z,986.32
2018-09-16T05:01:43.051Z,986.33
2018-09-16T05:02:42.974Z,986.36
2018-09-16T05:03:42.893Z,986.37
2018-09-16T05:04:42.817Z,986.35
2018-09-16T05:05:42.739Z,986.36
2018-09-16T05:06:42.664Z,986.39
2018-09-16T05:07:42.579Z,986.36
2018-09-16T05:08:42.500Z,986.31
2018-09-16T05:09:42.423Z,986.35
2018-09-16T05:10:42.344Z,986.32
2018-09-16T05:11:42.266Z,986.38
2018-09-16T05:12:42.186Z,986.34
2018-09-16T05:13:42.108Z,986.35
2018-09-16T05:14:42.029Z,986.36
2018-09-16T05:15:41.949Z,986.39
2018-09-16T05:16:41.871Z,986.33
2018-09-16T05:17:41.793Z,986.30
2018-09-16T05:18:41.713Z,986.31
2018-09-16T05:19:41.638Z,986.30
2018-09-16T05:20:41.556Z,986.31
2018-09-16T05:21:41.481Z,986.30
2018-09-16T05:22:41.542Z,986.28
2018-09-16T05:23:41.321Z,986.30
2018-09-16T05:24:41.245Z,986.33
2018-09-16T05:25:41.164Z,986.31
2018-09-16T05:26:41.086Z,986.34
2018-09-16T05:27:41.008Z,986.38
2018-09-16T05:28:40.927Z,986.34
2018-09-16T05:29:40.848Z,986.37
2018-09-16T05:30:40.766Z,986.39
2018-09-16T05:31:40.695Z,986.40
2018-09-16T05:32:40.613Z,986.38
2018-09-16T05:33:40.532Z,986.40
2018-09-16T05:34:40.453Z,986.43
2018-09-16T05:35:40.375Z,986.42
2018-09-16T05:36:40.295Z,986.43
2018-09-16T05:37:40.222Z,986.44
2018-09-16T05:38:40.137Z,986.45
2018-09-16T05:39:40.060Z,986.46
2018-09-16T05:40:39.982Z,986.48
2018-09-16T05:41:39.902Z,986.48
2018-09-16T05:42:39.825Z,986.47
2018-09-16T05:43:39.747Z,986.51
2018-09-16T05:44:39.667Z,986.47
2018-09-16T05:45:39.588Z,986.50
2018-09-16T05:46:39.508Z,986.49
2018-09-16T05:47:39.429Z,986.50
2018-09-16T05:48:39.352Z,986.50
2018-09-16T05:49:39.271Z,986.47
2018-09-16T05:50:39.198Z,986.50
2018-09-16T05:51:39.114Z,986.52
2018-09-16T05:52:39.081Z,986.53
2018-09-16T05:53:39.045Z,986.53
2018-09-16T05:54:38.879Z,986.55
2018-09-16T05:55:38.803Z,986.58
2018-09-16T05:56:38.726Z,986.57
2018-09-16T05:57:38.645Z,986.55
2018-09-16T05:58:38.567Z,986.57
2018-09-16T05:59:38.486Z,986.57
2018-09-16T06:00:38.411Z,986.60
2018-09-16T06:01:38.329Z,986.61
2018-09-16T06:02:38.263Z,986.62
2018-09-16T06:03:38.172Z,986.59
2018-09-16T06:04:38.145Z,986.58
2018-09-16T06:05:38.018Z,986.62
2018-09-16T06:06:37.935Z,986.60
2018-09-16T06:07:37.856Z,986.60
2018-09-16T06:08:37.784Z,986.67
2018-09-16T06:09:37.699Z,986.61
2018-09-16T06:10:37.633Z,986.61
2018-09-16T06:11:37.544Z,986.60
2018-09-16T06:12:37.461Z,986.61
2018-09-16T06:13:37.383Z,986.60
2018-09-16T06:14:37.307Z,986.63
2018-09-16T06:15:37.228Z,986.66
2018-09-16T06:16:37.148Z,986.64
2018-09-16T06:17:37.079Z,986.66
2018-09-16T06:18:36.992Z,986.68
2018-09-16T06:19:36.918Z,986.67
2018-09-16T06:20:36.845Z,986.68
2018-09-16T06:21:36.760Z,986.67
2018-09-16T06:22:36.748Z,986.65
2018-09-16T06:23:36.601Z,986.68
2018-09-16T06:24:36.526Z,986.66
2018-09-16T06:25:36.446Z,986.70
2018-09-16T06:26:36.378Z,986.68
2018-09-16T06:27:36.287Z,986.67
2018-09-16T06:28:36.209Z,986.70
2018-09-16T06:29:36.136Z,986.64
2018-09-16T06:30:36.057Z,986.68
2018-09-16T06:31:35.980Z,986.68
2018-09-16T06:32:35.900Z,986.67
2018-09-16T06:33:35.837Z,986.66
2018-09-16T06:34:35.738Z,986.63
2018-09-16T06:35:35.662Z,986.60
2018-09-16T06:36:35.583Z,986.56
2018-09-16T06:37:35.508Z,986.54
2018-09-16T06:38:35.425Z,986.50
2018-09-16T06:39:35.349Z,986.49
2018-09-16T06:40:35.268Z,986.41
2018-09-16T06:41:35.194Z,986.42
2018-09-16T06:42:35.111Z,986.45
2018-09-16T06:43:35.036Z,986.46
2018-09-16T06:44:34.955Z,986.40
2018-09-16T06:45:34.879Z,986.44
2018-09-16T06:46:34.799Z,986.43
2018-09-16T06:47:34.734Z,986.43
2018-09-16T06:48:34.644Z,986.36
2018-09-16T06:49:34.569Z,986.36
2018-09-16T06:50:34.488Z,986.40
2018-09-16T06:51:34.408Z,986.40
2018-09-16T06:52:34.336Z,986.40
2018-09-16T06:53:34.259Z,986.44
2018-09-16T06:54:34.176Z,986.44
2018-09-16T06:55:34.099Z,986.50
2018-09-16T06:56:34.019Z,986.48
2018-09-16T06:57:33.944Z,986.48
2018-09-16T06:58:33.870Z,986.49
2018-09-16T06:59:33.788Z,986.50
2018-09-16T07:00:33.709Z,986.52
2018-09-16T07:01:33.647Z,986.48
2018-09-16T07:02:33.557Z,986.52
2018-09-16T07:03:33.476Z,986.50
2018-09-16T07:04:33.399Z,986.52
2018-09-16T07:05:33.321Z,986.48
2018-09-16T07:06:33.247Z,986.47
2018-09-16T07:07:33.165Z,986.46
2018-09-16T07:08:33.087Z,986.42
2018-09-16T07:09:33.009Z,986.42
2018-09-16T07:10:32.938Z,986.40
2018-09-16T07:11:32.863Z,986.41
2018-09-16T07:12:32.786Z,986.40
2018-09-16T07:13:32.700Z,986.42
2018-09-16T07:14:32.746Z,986.43
2018-09-16T07:15:32.543Z,986.45
2018-09-16T07:16:32.469Z,986.46
2018-09-16T07:17:32.389Z,986.46
2018-09-16T07:18:32.311Z,986.50
2018-09-16T07:19:32.238Z,986.46
2018-09-16T07:20:32.161Z,986.50
2018-09-16T07:21:32.079Z,986.50
2018-09-16T07:22:32.002Z,986.52
2018-09-16T07:23:31.924Z,986.51
2018-09-16T07:24:31.847Z,986.49
2018-09-16T07:25:31.771Z,986.45
2018-09-16T07:26:31.692Z,986.48
2018-09-16T07:27:31.778Z,986.43
2018-09-16T07:28:31.537Z,986.45
2018-09-16T07:29:31.460Z,986.43
2018-09-16T07:30:31.383Z,986.37
2018-09-16T07:31:31.308Z,986.41
2018-09-16T07:32:31.229Z,986.39
2018-09-16T07:33:31.160Z,986.40
2018-09-16T07:34:31.075Z,986.41
2018-09-16T07:35:31.001Z,986.41
2018-09-16T07:36:30.921Z,986.43
2018-09-16T07:37:30.844Z,986.42
2018-09-16T07:38:30.764Z,986.44
2018-09-16T07:39:30.688Z,986.43
2018-09-16T07:40:30.614Z,986.43
2018-09-16T07:41:30.534Z,986.48
2018-09-16T07:42:30.459Z,986.44
2018-09-16T07:43:30.381Z,986.42
2018-09-16T07:44:30.307Z,986.40
2018-09-16T07:45:30.228Z,986.42
2018-09-16T07:46:30.160Z,986.43
2018-09-16T07:47:30.144Z,986.44
2018-09-16T07:48:29.999Z,986.44
2018-09-16T07:49:29.919Z,986.42
2018-09-16T07:50:29.842Z,986.41
2018-09-16T07:51:29.786Z,986.39
2018-09-16T07:52:29.691Z,986.35
2018-09-16T07:53:29.614Z,986.37
2018-09-16T07:54:29.535Z,986.35
2018-09-16T07:55:29.460Z,986.35
2018-09-16T07:56:29.382Z,986.37
2018-09-16T07:57:29.315Z,986.31
2018-09-16T07:58:29.232Z,986.34
2018-09-16T07:59:29.156Z,986.31
2018-09-16T08:00:29.128Z,986.33
2018-09-16T08:01:29.004Z,986.32
2018-09-16T08:02:28.920Z,986.30
2018-09-16T08:03:28.844Z,986.32
2018-09-16T08:04:28.771Z,986.32
2018-09-16T08:05:28.699Z,986.32
2018-09-16T08:06:28.617Z,986.35
2018-09-16T08:07:28.546Z,986.33
2018-09-16T08:08:28.469Z,986.34
2018-09-16T08:09:28.387Z,986.38
2018-09-16T08:10:28.309Z,986.37
2018-09-16T08:11:28.232Z,986.38
2018-09-16T08:12:28.159Z,986.37
2018-09-16T08:13:28.078Z,986.36
2018-09-16T08:14:28.003Z,986.42
2018-09-16T08:15:27.924Z,986.40
2018-09-16T08:16:27.850Z,986.35
2018-09-16T08:17:27.787Z,986.40
2018-09-16T08:18:27.775Z,986.41
2018-09-16T08:19:27.621Z,986.38
2018-09-16T08:20:27.545Z,986.39
2018-09-16T08:21:27.547Z,986.35
2018-09-16T08:22:27.392Z,986.37
2018-09-16T08:23:27.315Z,986.34
2018-09-16T08:24:27.244Z,986.37
2018-09-16T08:25:27.162Z,986.37
2018-09-16T08:26:27.084Z,986.36
2018-09-16T08:27:27.011Z,986.39
2018-09-16T08:28:27.018Z,986.38
2018-09-16T08:29:26.857Z,986.38
2018-09-16T08:30:26.779Z,986.43
2018-09-16T08:31:26.706Z,986.40
2018-09-16T08:32:26.629Z,986.43
2018-09-16T08:33:26.557Z,986.38
2018-09-16T08:34:26.476Z,986.37
2018-09-16T08:35:26.400Z,986.33
2018-09-16T08:36:26.330Z,986.35
2018-09-16T08:37:26.252Z,986.34
2018-09-16T08:38:26.175Z,986.34
2018-09-16T08:39:26.095Z,986.36
2018-09-16T08:40:26.024Z,986.38
2018-09-16T08:41:25.945Z,986.34
2018-09-16T08:42:25.869Z,986.31
2018-09-16T08:43:25.791Z,986.34
2018-09-16T08:44:25.718Z,986.33
2018-09-16T08:45:25.655Z,986.30
2018-09-16T08:46:25.564Z,986.31
2018-09-16T08:47:25.489Z,986.30
2018-09-16T08:48:25.413Z,986.31
2018-09-16T08:49:25.340Z,986.31
2018-09-16T08:50:25.261Z,986.27
2018-09-16T08:51:25.186Z,986.28
2018-09-16T08:52:25.110Z,986.27
2018-09-16T08:53:25.037Z,986.30
2018-09-16T08:54:24.961Z,986.28
2018-09-16T08:55:24.883Z,986.31
2018-09-16T08:56:24.810Z,986.30
2018-09-16T08:57:24.735Z,986.31
2018-09-16T08:58:24.841Z,986.32
2018-09-16T08:59:24.581Z,986.31
2018-09-16T09:00:24.505Z,986.32
2018-09-16T09:01:24.430Z,986.28
2018-09-16T09:02:24.354Z,986.33
2018-09-16T09:03:24.318Z,986.30
2018-09-16T09:04:24.255Z,986.31
2018-09-16T09:05:24.129Z,986.31
2018-09-16T09:06:24.057Z,986.34
2018-09-16T09:07:23.977Z,986.32
2018-09-16T09:08:23.904Z,986.33
2018-09-16T09:09:23.829Z,986.30
2018-09-16T09:10:23.763Z,986.32
2018-09-16T09:11:23.683Z,986.33
2018-09-16T09:12:23.603Z,986.34
2018-09-16T09:13:23.528Z,986.37
2018-09-16T09:14:23.529Z,986.34
2018-09-16T09:15:23.391Z,986.30
2018-09-16T09:16:23.306Z,986.29
2018-09-16T09:17:23.228Z,986.31
2018-09-16T09:18:23.152Z,986.30
2018-09-16T09:19:23.082Z,986.30
2018-09-16T09:20:23.004Z,986.25
2018-09-16T09:21:22.931Z,986.24
2018-09-16T09:22:22.853Z,986.24
2018-09-16T09:23:22.833Z,986.28
2018-09-16T09:24:22.702Z,986.22
2018-09-16T09:25:22.634Z,986.22
2018-09-16T09:26:22.557Z,986.21
2018-09-16T09:27:22.482Z,986.24
2018-09-16T09:28:22.402Z,986.19
2018-09-16T09:29:22.330Z,986.22
2018-09-16T09:30:22.262Z,986.23
2018-09-16T09:31:22.196Z,986.20
2018-09-16T09:32:22.103Z,986.19
2018-09-16T09:33:22.029Z,986.16
2018-09-16T09:34:21.955Z,986.16
2018-09-16T09:35:21.877Z,986.14
2018-09-16T09:36:21.807Z,986.18
2018-09-16T09:37:21.735Z,986.20
2018-09-16T09:38:21.668Z,986.17
2018-09-16T09:39:21.584Z,986.20
2018-09-16T09:40:21.507Z,986.17
2018-09-16T09:41:21.435Z,986.16
2018-09-16T09:42:21.356Z,986.16
2018-09-16T09:43:21.283Z,986.17
2018-09-16T09:44:21.209Z,986.10
2018-09-16T09:45:21.145Z,986.12
2018-09-16T09:46:21.062Z,986.08
2018-09-16T09:47:20.986Z,986.07
2018-09-16T09:48:20.911Z,986.06
2018-09-16T09:49:20.837Z,986.04
2018-09-16T09:50:20.762Z,986.06
2018-09-16T09:51:20.687Z,986.02
2018-09-16T09:52:20.614Z,985.97
2018-09-16T09:53:20.613Z,985.97
2018-09-16T09:54:20.464Z,985.96
2018-09-16T09:55:20.392Z,985.97
2018-09-16T09:56:20.319Z,985.95
2018-09-16T09:57:20.253Z,985.93
2018-09-16T09:58:20.170Z,985.92
2018-09-16T09:59:20.164Z,985.90
2018-09-16T10:00:20.026Z,985.90
2018-09-16T10:01:19.948Z,985.87
2018-09-16T10:02:19.884Z,985.88
2018-09-16T10:03:19.801Z,985.89
2018-09-16T10:04:19.730Z,985.88
2018-09-16T10:05:19.652Z,985.85
2018-09-16T10:06:27.259Z,985.90
2018-09-16T10:08:23.947Z,985.88
2018-09-16T10:09:23.817Z,985.88
2018-09-16T10:11:28.151Z,985.87
2018-09-16T10:12:28.071Z,985.85
2018-09-16T10:14:32.552Z,985.82
2018-09-16T10:15:32.316Z,985.76
2018-09-16T10:17:25.617Z,985.73
2018-09-16T10:18:25.494Z,985.69
2018-09-16T10:20:38.459Z,985.68
2018-09-16T10:21:29.742Z,985.70
2018-09-16T10:23:34.088Z,985.68
2018-09-16T10:24:33.966Z,985.69
2018-09-16T10:26:38.297Z,985.61
2018-09-16T10:27:38.213Z,985.64
2018-09-16T10:29:42.601Z,985.61
2018-09-16T10:30:42.480Z,985.64
2018-09-16T10:32:46.850Z,985.63
2018-09-16T10:33:46.726Z,985.63
2018-09-16T10:35:51.057Z,985.63
2018-09-16T10:36:50.979Z,985.61
2018-09-16T10:38:55.393Z,985.60
2018-09-16T10:39:55.224Z,985.61
2018-09-16T10:40:55.149Z,985.57
2018-09-16T10:41:55.080Z,985.57
2018-09-16T10:42:55.004Z,985.58
2018-09-16T10:43:54.940Z,985.58
2018-09-16T10:44:54.859Z,985.57
2018-09-16T10:45:54.788Z,985.53
2018-09-16T10:46:54.717Z,985.55
2018-09-16T10:47:54.643Z,985.50
2018-09-16T10:48:54.572Z,985.46
2018-09-16T10:49:54.504Z,985.47
2018-09-16T10:50:54.426Z,985.46
2018-09-16T10:51:54.353Z,985.46
2018-09-16T10:52:54.284Z,985.48
2018-09-16T10:53:54.209Z,985.46
2018-09-16T10:54:54.144Z,985.49
2018-09-16T10:55:54.065Z,985.43
2018-09-16T10:56:53.998Z,985.46
2018-09-16T10:57:53.966Z,985.41
2018-09-16T10:58:53.848Z,985.46
2018-09-16T10:59:53.774Z,985.42
2018-09-16T11:00:53.711Z,985.44
2018-09-16T11:01:53.633Z,985.38
2018-09-16T11:02:53.562Z,985.39
2018-09-16T11:03:53.495Z,985.39
2018-09-16T11:04:53.423Z,985.36
2018-09-16T11:05:53.348Z,985.37
2018-09-16T11:06:53.274Z,985.34
2018-09-16T11:07:53.248Z,985.35
2018-09-16T11:08:53.138Z,985.37
2018-09-16T11:09:53.060Z,985.38
2018-09-16T11:10:52.991Z,985.39
2018-09-16T11:11:52.918Z,985.34
2018-09-16T11:12:52.850Z,985.37
2018-09-16T11:13:52.779Z,985.39
2018-09-16T11:14:52.704Z,985.36
2018-09-16T11:15:52.691Z,985.33
2018-09-16T11:16:52.569Z,985.33
2018-09-16T11:17:52.493Z,985.28
2018-09-16T11:18:52.423Z,985.21
2018-09-16T11:19:52.351Z,985.23
2018-09-16T11:20:52.280Z,985.23
2018-09-16T11:21:52.211Z,985.28
2018-09-16T11:22:52.141Z,985.22
2018-09-16T11:23:52.070Z,985.27
2018-09-16T11:24:51.999Z,985.32
2018-09-16T11:25:51.931Z,985.27
2018-09-16T11:26:51.860Z,985.26
2018-09-16T11:27:51.794Z,985.32
2018-09-16T11:28:51.722Z,985.34
2018-09-16T11:29:51.679Z,985.29
2018-09-16T11:30:51.590Z,985.24
2018-09-16T11:31:51.520Z,985.22
2018-09-16T11:32:51.455Z,985.20
2018-09-16T11:33:51.386Z,985.16
2018-09-16T11:34:51.321Z,985.16
2018-09-16T11:35:51.255Z,985.14
2018-09-16T11:36:51.189Z,985.19
2018-09-16T11:37:51.127Z,985.15
2018-09-16T11:38:51.070Z,985.14
2018-09-16T11:39:51.003Z,985.14
2018-09-16T11:40:50.935Z,985.13
2018-09-16T11:41:50.875Z,985.13
2018-09-16T11:42:50.818Z,985.09
2018-09-16T11:43:50.751Z,985.09
2018-09-16T11:44:50.693Z,985.08
2018-09-16T11:45:50.634Z,985.08
2018-09-16T11:46:50.567Z,985.08
2018-09-16T11:47:50.508Z,985.00
2018-09-16T11:48:50.449Z,984.99
2018-09-16T11:49:50.388Z,985.01
2018-09-16T11:50:50.329Z,985.02
2018-09-16T11:51:50.270Z,985.02
2018-09-16T11:52:50.211Z,985.01
2018-09-16T11:53:50.152Z,985.01
2018-09-16T11:54:50.096Z,984.99
2018-09-16T11:55:50.036Z,985.02
2018-09-16T11:56:49.979Z,984.95
2018-09-16T11:57:49.923Z,984.96
2018-09-16T11:58:49.864Z,984.95
2018-09-16T11:59:49.809Z,984.94
2018-09-16T12:00:49.751Z,984.92
2018-09-16T12:01:49.732Z,984.88
2018-09-16T12:02:49.637Z,984.82
2018-09-16T12:03:49.579Z,984.83
2018-09-16T12:04:49.523Z,984.82
2018-09-16T12:05:49.469Z,984.77
2018-09-16T12:06:49.416Z,984.83
2018-09-16T12:07:49.356Z,984.79
2018-09-16T12:08:49.298Z,984.78
2018-09-16T12:09:49.252Z,984.79
2018-09-16T12:10:49.189Z,984.79
2018-09-16T12:11:49.133Z,984.78
2018-09-16T12:12:49.079Z,984.77
2018-09-16T12:13:49.022Z,984.79
2018-09-16T12:14:48.969Z,984.80
2018-09-16T12:15:48.912Z,984.82
2018-09-16T12:16:48.861Z,984.79
2018-09-16T12:17:48.805Z,984.78
2018-09-16T12:18:48.751Z,984.76
2018-09-16T12:19:48.694Z,984.75
2018-09-16T12:20:48.641Z,984.78
2018-09-16T12:21:48.589Z,984.79
2018-09-16T12:22:48.534Z,984.78
2018-09-16T12:23:48.476Z,984.73
2018-09-16T12:24:48.426Z,984.74
2018-09-16T12:25:48.369Z,984.73
2018-09-16T12:26:48.317Z,984.78
2018-09-16T12:27:48.263Z,984.76
2018-09-16T12:28:48.210Z,984.76
2018-09-16T12:29:48.154Z,984.78
2018-09-16T12:30:48.111Z,984.76
2018-09-16T12:31:48.049Z,984.72
2018-09-16T12:32:47.995Z,984.69
2018-09-16T12:33:47.942Z,984.68
2018-09-16T12:34:47.889Z,984.69
2018-09-16T12:35:47.835Z,984.65
2018-09-16T12:36:47.783Z,984.66
2018-09-16T12:37:47.731Z,984.64
2018-09-16T12:38:47.677Z,984.63